LNG Dream — C6VO5 — position and weather

sailwx.info

Track history (hours):
 
Tides and Currents Weather Stations Pressure Air Temp Water Temp Dewpoint Dewpoint Depression Visibility Wind Speed Wind Dir Waves Ship Positions

LNG Dream

Last reported at 2018-Jan-23 00:23 UTC. Time now 2018-Jan-23 12:00 UTC.
Position N 34°05' E 137°53'.

Length 289.6 m; beam 49 m.

Type: Ship (hazmat cat A). MMSI: 309065000.

Date/timePositionNaut miles runAvg speedWind from/ knotsBaromVisibWave heightAir tempDewpointWater temp
2018-Jan-23 00:23N 34°05' E 137°53'3210.5
2018-Jan-22 21:19N 34°19' E 138°28'3 8.3
2018-Jan-22 20:54N 34°20' E 138°32'4 8.0
2018-Jan-22 20:24N 34°21' E 138°37'4 7.6
2018-Jan-22 19:54N 34°23' E 138°41'4 7.9
2018-Jan-22 19:25N 34°25' E 138°45'3 7.9
2018-Jan-22 18:59N 34°26' E 138°49'4 8.0
2018-Jan-22 18:30N 34°28' E 138°53'4 8.4
2018-Jan-22 18:00N 34°29' E 138°58'5 9.4
2018-Jan-22 17:28N 34°32' E 139°03'510.2
2018-Jan-22 17:00N 34°34' E 139°09'6 9.6
2018-Jan-22 16:20N 34°36' E 139°16'410.3
2018-Jan-22 15:55N 34°35' E 139°21'510.8
2018-Jan-22 15:30N 34°35' E 139°27'510.8
2018-Jan-22 14:59N 34°37' E 139°33'611.1
2018-Jan-22 14:28N 34°39' E 139°39'610.0
2018-Jan-22 13:54N 34°41' E 139°46'410.1
2018-Jan-22 13:29N 34°43' E 139°51'611.1
2018-Jan-22 12:56N 34°45' E 139°57'612.8
2018-Jan-22 12:30N 34°48' E 140°03'612.8
2018-Jan-22 12:00N 34°51' E 140°10'712.8
2018-Jan-22 11:29N 34°55' E 140°17'912.3
2018-Jan-22 10:46N 34°59' E 140°26'39614.5
2018-Jan-21 07:25N 41°31' E 141°42'614.9
2018-Jan-21 07:00N 41°34' E 141°35'816.2
2018-Jan-21 06:30N 41°37' E 141°25'611.5
2018-Jan-21 06:00N 41°38' E 141°17'816.4
2018-Jan-21 05:30N 41°38' E 141°06'1019.7
2018-Jan-21 05:01N 41°38' E 140°53'1019.6
2018-Jan-21 04:30N 41°33' E 140°42'1019.7
2018-Jan-21 04:00N 41°28' E 140°31'1020.0
2018-Jan-21 03:30N 41°22' E 140°20'2118.9
2018-Jan-21 02:22N 41°16' E 139°52'718.2
2018-Jan-21 02:00N 41°16' E 139°43'917.8
2018-Jan-21 01:29N 41°17' E 139°31'817.5
2018-Jan-21 01:00N 41°21' E 139°22'917.9
2018-Jan-21 00:30N 41°28' E 139°13'916.6
2018-Jan-20 23:58N 41°36' E 139°12'1917.8
2018-Jan-20 22:53N 41°56' E 139°11'  
Track history (hours):
 
Tides and Currents Weather Stations Pressure Air Temp Water Temp Dewpoint Dewpoint Depression Visibility Wind Speed Wind Dir Waves Ship Positions

LNG Dream

Last reported at 2018-Jan-23 00:23 UTC. Time now 2018-Jan-23 12:00 UTC.
Position N 34°05' E 137°53'.

Length 289.6 m; beam 49 m.

Type: Ship (hazmat cat A). MMSI: 309065000.

Date/timePositionNaut miles runAvg speedWind from/ knotsBaromVisibWave heightAir tempDewpointWater temp
2018-Jan-23 00:23N 34°05' E 137°53'3210.5
2018-Jan-22 21:19N 34°19' E 138°28'3 8.3
2018-Jan-22 20:54N 34°20' E 138°32'4 8.0
2018-Jan-22 20:24N 34°21' E 138°37'4 7.6
2018-Jan-22 19:54N 34°23' E 138°41'4 7.9
2018-Jan-22 19:25N 34°25' E 138°45'3 7.9
2018-Jan-22 18:59N 34°26' E 138°49'4 8.0
2018-Jan-22 18:30N 34°28' E 138°53'4 8.4
2018-Jan-22 18:00N 34°29' E 138°58'5 9.4
2018-Jan-22 17:28N 34°32' E 139°03'510.2
2018-Jan-22 17:00N 34°34' E 139°09'6 9.6
2018-Jan-22 16:20N 34°36' E 139°16'410.3
2018-Jan-22 15:55N 34°35' E 139°21'510.8
2018-Jan-22 15:30N 34°35' E 139°27'510.8
2018-Jan-22 14:59N 34°37' E 139°33'611.1
2018-Jan-22 14:28N 34°39' E 139°39'610.0
2018-Jan-22 13:54N 34°41' E 139°46'410.1
2018-Jan-22 13:29N 34°43' E 139°51'611.1
2018-Jan-22 12:56N 34°45' E 139°57'612.8
2018-Jan-22 12:30N 34°48' E 140°03'612.8
2018-Jan-22 12:00N 34°51' E 140°10'712.8
2018-Jan-22 11:29N 34°55' E 140°17'912.3
2018-Jan-22 10:46N 34°59' E 140°26'39614.5
2018-Jan-21 07:25N 41°31' E 141°42'614.9
2018-Jan-21 07:00N 41°34' E 141°35'816.2
2018-Jan-21 06:30N 41°37' E 141°25'611.5
2018-Jan-21 06:00N 41°38' E 141°17'816.4
2018-Jan-21 05:30N 41°38' E 141°06'1019.7
2018-Jan-21 05:01N 41°38' E 140°53'1019.6
2018-Jan-21 04:30N 41°33' E 140°42'1019.7
2018-Jan-21 04:00N 41°28' E 140°31'1020.0
2018-Jan-21 03:30N 41°22' E 140°20'2118.9
2018-Jan-21 02:22N 41°16' E 139°52'718.2
2018-Jan-21 02:00N 41°16' E 139°43'917.8
2018-Jan-21 01:29N 41°17' E 139°31'817.5
2018-Jan-21 01:00N 41°21' E 139°22'917.9
2018-Jan-21 00:30N 41°28' E 139°13'916.6
2018-Jan-20 23:58N 41°36' E 139°12'1917.8
2018-Jan-20 22:53N 41°56' E 139°11'  

Dump ship's entire track history